sensor_id;sensor_type;location;lat;lon;timestamp;pressure;altitude;pressure_sealevel;temperature;humidity
21706;BME280;11014;53.076;18.208;2022-10-16T00:01:48;101116.00;;;18.74;66.56
21706;BME280;11014;53.076;18.208;2022-10-16T00:04:17;101116.84;;;18.70;66.84
21706;BME280;11014;53.076;18.208;2022-10-16T00:06:46;101119.03;;;18.63;67.09
21706;BME280;11014;53.076;18.208;2022-10-16T00:09:14;101125.81;;;18.55;66.96
21706;BME280;11014;53.076;18.208;2022-10-16T00:11:43;101127.69;;;18.50;67.07
21706;BME280;11014;53.076;18.208;2022-10-16T00:14:13;101134.22;;;18.44;67.61
21706;BME280;11014;53.076;18.208;2022-10-16T00:16:42;101123.56;;;18.37;67.83
21706;BME280;11014;53.076;18.208;2022-10-16T00:19:11;101121.69;;;18.32;68.07
21706;BME280;11014;53.076;18.208;2022-10-16T00:21:40;101127.91;;;18.28;68.01
21706;BME280;11014;53.076;18.208;2022-10-16T00:24:26;101136.34;;;18.21;67.88
21706;BME280;11014;53.076;18.208;2022-10-16T00:26:55;101136.56;;;18.15;68.38
21706;BME280;11014;53.076;18.208;2022-10-16T00:29:24;101127.06;;;18.12;68.52
21706;BME280;11014;53.076;18.208;2022-10-16T00:31:52;101127.34;;;18.06;68.61
21706;BME280;11014;53.076;18.208;2022-10-16T00:34:21;101124.03;;;18.04;68.64
21706;BME280;11014;53.076;18.208;2022-10-16T00:36:49;101129.47;;;18.04;68.76
21706;BME280;11014;53.076;18.208;2022-10-16T00:39:18;101133.31;;;18.03;69.09
21706;BME280;11014;53.076;18.208;2022-10-16T00:41:47;101140.94;;;18.06;69.37
21706;BME280;11014;53.076;18.208;2022-10-16T00:44:46;101135.50;;;18.11;69.37
21706;BME280;11014;53.076;18.208;2022-10-16T00:47:26;101135.50;;;18.11;69.40
21706;BME280;11014;53.076;18.208;2022-10-16T00:50:44;101122.97;;;18.10;69.15
21706;BME280;11014;53.076;18.208;2022-10-16T00:52:48;101130.31;;;18.14;69.14
21706;BME280;11014;53.076;18.208;2022-10-16T00:55:18;101122.44;;;18.18;69.34
21706;BME280;11014;53.076;18.208;2022-10-16T00:57:48;101115.41;;;18.22;69.41
21706;BME280;11014;53.076;18.208;2022-10-16T01:00:22;101113.50;;;18.27;69.00
21706;BME280;11014;53.076;18.208;2022-10-16T01:02:56;101117.59;;;18.30;69.16
21706;BME280;11014;53.076;18.208;2022-10-16T01:05:33;101123.56;;;18.32;69.00
21706;BME280;11014;53.076;18.208;2022-10-16T01:08:18;101119.50;;;18.34;69.04
21706;BME280;11014;53.076;18.208;2022-10-16T01:11:03;101127.94;;;18.33;69.25
21706;BME280;11014;53.076;18.208;2022-10-16T01:13:55;101147.50;;;18.35;69.06
21706;BME280;11014;53.076;18.208;2022-10-16T01:16:36;101151.06;;;18.30;69.16
21706;BME280;11014;53.076;18.208;2022-10-16T01:19:44;101144.25;;;18.33;68.80
21706;BME280;11014;53.076;18.208;2022-10-16T01:22:20;101149.97;;;18.36;68.75
21706;BME280;11014;53.076;18.208;2022-10-16T01:24:50;101155.69;;;18.40;68.52
21706;BME280;11014;53.076;18.208;2022-10-16T01:27:24;101143.72;;;18.41;68.58
21706;BME280;11014;53.076;18.208;2022-10-16T01:30:01;101140.19;;;18.46;68.61
21706;BME280;11014;53.076;18.208;2022-10-16T01:32:43;101138.53;;;18.45;68.58
21706;BME280;11014;53.076;18.208;2022-10-16T01:35:27;101140.75;;;18.48;68.33
21706;BME280;11014;53.076;18.208;2022-10-16T01:38:15;101142.09;;;18.45;68.08
21706;BME280;11014;53.076;18.208;2022-10-16T01:40:49;101148.63;;;18.44;68.33
21706;BME280;11014;53.076;18.208;2022-10-16T01:43:24;101145.09;;;18.44;68.22
21706;BME280;11014;53.076;18.208;2022-10-16T01:45:55;101148.06;;;18.42;68.41
21706;BME280;11014;53.076;18.208;2022-10-16T01:48:24;101142.63;;;18.42;68.19
21706;BME280;11014;53.076;18.208;2022-10-16T01:51:03;101152.97;;;18.40;68.50
21706;BME280;11014;53.076;18.208;2022-10-16T01:53:34;101150.25;;;18.40;68.25
21706;BME280;11014;53.076;18.208;2022-10-16T01:56:09;101155.16;;;18.38;68.24
21706;BME280;11014;53.076;18.208;2022-10-16T01:58:44;101155.69;;;18.40;68.13
21706;BME280;11014;53.076;18.208;2022-10-16T02:01:16;101147.00;;;18.43;68.11
21706;BME280;11014;53.076;18.208;2022-10-16T02:03:50;101145.34;;;18.42;68.21
21706;BME280;11014;53.076;18.208;2022-10-16T02:06:20;101136.09;;;18.38;68.23
21706;BME280;11014;53.076;18.208;2022-10-16T02:08:48;101138.25;;;18.31;68.33
21706;BME280;11014;53.076;18.208;2022-10-16T02:11:17;101142.06;;;18.25;68.32
21706;BME280;11014;53.076;18.208;2022-10-16T02:13:48;101147.75;;;18.18;68.00
21706;BME280;11014;53.076;18.208;2022-10-16T02:16:19;101148.00;;;18.12;67.99
21706;BME280;11014;53.076;18.208;2022-10-16T02:18:48;101146.91;;;18.08;68.17
21706;BME280;11014;53.076;18.208;2022-10-16T02:22:15;101145.53;;;18.05;68.34
21706;BME280;11014;53.076;18.208;2022-10-16T02:28:14;101146.06;;;17.97;68.68
21706;BME280;11014;53.076;18.208;2022-10-16T02:32:54;101150.06;;;17.85;68.77
21706;BME280;11014;53.076;18.208;2022-10-16T02:35:25;101146.81;;;17.83;68.81
21706;BME280;11014;53.076;18.208;2022-10-16T02:37:55;101143.56;;;17.86;69.05
21706;BME280;11014;53.076;18.208;2022-10-16T02:40:26;101150.63;;;17.87;69.06
21706;BME280;11014;53.076;18.208;2022-10-16T02:42:55;101149.84;;;17.91;69.44
21706;BME280;11014;53.076;18.208;2022-10-16T02:45:24;101156.63;;;17.94;69.50
21706;BME280;11014;53.076;18.208;2022-10-16T02:47:53;101158.28;;;17.95;69.56
21706;BME280;11014;53.076;18.208;2022-10-16T02:50:21;101153.38;;;17.97;69.77
21706;BME280;11014;53.076;18.208;2022-10-16T02:52:53;101152.56;;;18.01;69.58
21706;BME280;11014;53.076;18.208;2022-10-16T02:55:21;101155.03;;;18.03;69.61
21706;BME280;11014;53.076;18.208;2022-10-16T02:57:50;101149.84;;;18.01;69.97
21706;BME280;11014;53.076;18.208;2022-10-16T03:00:18;101144.72;;;18.05;70.12
21706;BME280;11014;53.076;18.208;2022-10-16T03:02:47;101141.47;;;18.08;70.08
21706;BME280;11014;53.076;18.208;2022-10-16T03:05:16;101138.47;;;18.09;70.15
21706;BME280;11014;53.076;18.208;2022-10-16T03:07:45;101140.41;;;18.14;69.72
21706;BME280;11014;53.076;18.208;2022-10-16T03:10:13;101141.47;;;18.18;69.83
21706;BME280;11014;53.076;18.208;2022-10-16T03:12:42;101146.91;;;18.18;69.74
21706;BME280;11014;53.076;18.208;2022-10-16T03:15:10;101138.78;;;18.18;69.78
21706;BME280;11014;53.076;18.208;2022-10-16T03:17:39;101143.97;;;18.19;70.08
21706;BME280;11014;53.076;18.208;2022-10-16T03:20:08;101144.75;;;18.20;70.17
21706;BME280;11014;53.076;18.208;2022-10-16T03:22:36;101137.16;;;18.22;70.03
21706;BME280;11014;53.076;18.208;2022-10-16T03:25:05;101140.41;;;18.24;69.94
21706;BME280;11014;53.076;18.208;2022-10-16T03:27:33;101140.97;;;18.26;69.70
21706;BME280;11014;53.076;18.208;2022-10-16T03:30:02;101143.69;;;18.26;69.69
21706;BME280;11014;53.076;18.208;2022-10-16T03:32:31;101138.25;;;18.26;69.64
21706;BME280;11014;53.076;18.208;2022-10-16T03:35:00;101140.97;;;18.26;69.69
21706;BME280;11014;53.076;18.208;2022-10-16T03:37:28;101150.75;;;18.27;69.87
21706;BME280;11014;53.076;18.208;2022-10-16T03:39:57;101154.03;;;18.29;70.06
21706;BME280;11014;53.076;18.208;2022-10-16T03:42:26;101148.34;;;18.30;69.74
21706;BME280;11014;53.076;18.208;2022-10-16T03:44:54;101160.56;;;18.33;69.73
21706;BME280;11014;53.076;18.208;2022-10-16T03:47:22;101166.56;;;18.35;69.73
21706;BME280;11014;53.076;18.208;2022-10-16T03:49:52;101167.09;;;18.37;69.76
21706;BME280;11014;53.076;18.208;2022-10-16T03:52:21;101172.28;;;18.39;69.69
21706;BME280;11014;53.076;18.208;2022-10-16T03:54:50;101164.38;;;18.42;69.78
21706;BME280;11014;53.076;18.208;2022-10-16T03:57:18;101174.19;;;18.38;69.56
21706;BME280;11014;53.076;18.208;2022-10-16T03:59:47;101177.72;;;18.39;69.65
21706;BME280;11014;53.076;18.208;2022-10-16T04:02:17;101183.44;;;18.42;69.82
21706;BME280;11014;53.076;18.208;2022-10-16T04:04:46;101185.59;;;18.45;69.71
21706;BME280;11014;53.076;18.208;2022-10-16T04:07:14;101187.81;;;18.48;69.65
21706;BME280;11014;53.076;18.208;2022-10-16T04:09:43;101180.78;;;18.52;69.17
21706;BME280;11014;53.076;18.208;2022-10-16T04:12:12;101187.84;;;18.53;69.21
21706;BME280;11014;53.076;18.208;2022-10-16T04:14:40;101183.50;;;18.57;69.23
21706;BME280;11014;53.076;18.208;2022-10-16T04:17:09;101182.97;;;18.60;69.28
21706;BME280;11014;53.076;18.208;2022-10-16T04:19:37;101169.91;;;18.62;69.31
21706;BME280;11014;53.076;18.208;2022-10-16T04:22:06;101166.34;;;18.62;69.14
21706;BME280;11014;53.076;18.208;2022-10-16T04:24:34;101160.66;;;18.63;69.02
21706;BME280;11014;53.076;18.208;2022-10-16T04:27:03;101161.19;;;18.65;69.00
21706;BME280;11014;53.076;18.208;2022-10-16T04:29:31;101170.97;;;18.66;69.09
21706;BME280;11014;53.076;18.208;2022-10-16T04:32:00;101179.16;;;18.66;69.11
21706;BME280;11014;53.076;18.208;2022-10-16T04:34:29;101179.72;;;18.68;69.03
21706;BME280;11014;53.076;18.208;2022-10-16T04:36:57;101189.78;;;18.73;68.63
21706;BME280;11014;53.076;18.208;2022-10-16T04:39:26;101195.50;;;18.71;68.66
21706;BME280;11014;53.076;18.208;2022-10-16T04:41:54;101196.03;;;18.73;68.78
21706;BME280;11014;53.076;18.208;2022-10-16T04:44:23;101202.03;;;18.75;68.57
21706;BME280;11014;53.076;18.208;2022-10-16T04:46:51;101200.38;;;18.74;68.84
21706;BME280;11014;53.076;18.208;2022-10-16T04:49:20;101200.38;;;18.74;68.62
21706;BME280;11014;53.076;18.208;2022-10-16T04:51:48;101202.03;;;18.75;68.77
21706;BME280;11014;53.076;18.208;2022-10-16T04:54:17;101214.81;;;18.70;68.68
21706;BME280;11014;53.076;18.208;2022-10-16T04:56:45;101203.66;;;18.71;68.95
21706;BME280;11014;53.076;18.208;2022-10-16T04:59:19;101205.56;;;18.71;68.66
21706;BME280;11014;53.076;18.208;2022-10-16T05:01:48;101208.81;;;18.73;68.83
21706;BME280;11014;53.076;18.208;2022-10-16T05:04:17;101212.63;;;18.72;69.02
21706;BME280;11014;53.076;18.208;2022-10-16T05:06:45;101216.69;;;18.74;68.60
21706;BME280;11014;53.076;18.208;2022-10-16T05:09:14;101214.56;;;18.76;68.84
21706;BME280;11014;53.076;18.208;2022-10-16T05:11:42;101216.16;;;18.77;68.82
21706;BME280;11014;53.076;18.208;2022-10-16T05:14:11;101217.00;;;18.83;68.84
21706;BME280;11014;53.076;18.208;2022-10-16T05:16:39;101231.44;;;18.83;68.79
21706;BME280;11014;53.076;18.208;2022-10-16T05:19:08;101226.81;;;18.84;68.46
21706;BME280;11014;53.076;18.208;2022-10-16T05:21:56;101224.34;;;18.82;68.63
21706;BME280;11014;53.076;18.208;2022-10-16T05:24:26;101232.25;;;18.84;68.80
21706;BME280;11014;53.076;18.208;2022-10-16T05:26:54;101235.50;;;18.86;68.90
21706;BME280;11014;53.076;18.208;2022-10-16T05:29:23;101235.50;;;18.86;68.99
21706;BME280;11014;53.076;18.208;2022-10-16T05:31:52;101234.69;;;18.85;69.16
21706;BME280;11014;53.076;18.208;2022-10-16T05:34:21;101229.25;;;18.85;69.17
21706;BME280;11014;53.076;18.208;2022-10-16T05:36:50;101220.53;;;18.83;69.35
21706;BME280;11014;53.076;18.208;2022-10-16T05:39:19;101227.63;;;18.84;69.34
21706;BME280;11014;53.076;18.208;2022-10-16T05:41:49;101233.06;;;18.84;69.81
21706;BME280;11014;53.076;18.208;2022-10-16T05:44:17;101242.31;;;18.83;69.90
21706;BME280;11014;53.076;18.208;2022-10-16T05:46:46;101245.03;;;18.78;70.04
21706;BME280;11014;53.076;18.208;2022-10-16T05:49:15;101260.28;;;18.79;70.43
21706;BME280;11014;53.076;18.208;2022-10-16T05:51:44;101256.75;;;18.79;70.30
21706;BME280;11014;53.076;18.208;2022-10-16T05:54:12;101264.63;;;18.80;70.64
21706;BME280;11014;53.076;18.208;2022-10-16T05:56:41;101263.25;;;18.83;70.77
21706;BME280;11014;53.076;18.208;2022-10-16T05:59:10;101274.97;;;18.83;70.90
21706;BME280;11014;53.076;18.208;2022-10-16T06:01:38;101259.75;;;18.87;70.59
21706;BME280;11014;53.076;18.208;2022-10-16T06:04:08;101254.03;;;18.94;70.87
21706;BME280;11014;53.076;18.208;2022-10-16T06:06:38;101255.97;;;18.99;70.78
21706;BME280;11014;53.076;18.208;2022-10-16T06:09:07;101261.66;;;19.02;70.87
21706;BME280;11014;53.076;18.208;2022-10-16T06:11:36;101247.78;;;19.04;70.96
21706;BME280;11014;53.076;18.208;2022-10-16T06:14:07;101257.59;;;19.10;70.56
21706;BME280;11014;53.076;18.208;2022-10-16T06:16:37;101255.13;;;19.13;70.86
21706;BME280;11014;53.076;18.208;2022-10-16T06:19:09;101255.41;;;19.17;70.64
21706;BME280;11014;53.076;18.208;2022-10-16T06:21:37;101252.69;;;19.22;70.51
21706;BME280;11014;53.076;18.208;2022-10-16T06:24:06;101263.59;;;19.27;70.59
21706;BME280;11014;53.076;18.208;2022-10-16T06:26:35;101261.97;;;19.36;70.55
21706;BME280;11014;53.076;18.208;2022-10-16T06:29:03;101271.25;;;19.45;70.48
21706;BME280;11014;53.076;18.208;2022-10-16T06:31:32;101270.44;;;19.39;70.29
21706;BME280;11014;53.076;18.208;2022-10-16T06:34:02;101271.25;;;19.45;70.24
21706;BME280;11014;53.076;18.208;2022-10-16T06:36:32;101274.53;;;19.47;70.19
21706;BME280;11014;53.076;18.208;2022-10-16T06:39:04;101270.13;;;19.51;70.02
21706;BME280;11014;53.076;18.208;2022-10-16T06:41:33;101271.53;;;19.59;70.20
21706;BME280;11014;53.076;18.208;2022-10-16T06:44:15;101269.03;;;19.77;69.78
21706;BME280;11014;53.076;18.208;2022-10-16T06:46:43;101276.69;;;19.75;69.47
21706;BME280;11014;53.076;18.208;2022-10-16T06:49:12;101273.38;;;19.73;69.85
21706;BME280;11014;53.076;18.208;2022-10-16T06:51:41;101274.19;;;19.79;69.81
21706;BME280;11014;53.076;18.208;2022-10-16T06:54:10;101274.19;;;19.84;69.62
21706;BME280;11014;53.076;18.208;2022-10-16T06:56:39;101280.47;;;19.84;69.49
21706;BME280;11014;53.076;18.208;2022-10-16T06:59:07;101283.72;;;19.86;69.57
21706;BME280;11014;53.076;18.208;2022-10-16T07:01:36;101298.72;;;19.89;69.30
21706;BME280;11014;53.076;18.208;2022-10-16T07:04:04;101286.19;;;19.88;69.67
21706;BME280;11014;53.076;18.208;2022-10-16T07:06:34;101279.91;;;19.87;69.58
21706;BME280;11014;53.076;18.208;2022-10-16T07:09:05;101277.72;;;19.89;69.30
21706;BME280;11014;53.076;18.208;2022-10-16T07:11:34;101290.00;;;19.97;69.42
21706;BME280;11014;53.076;18.208;2022-10-16T07:14:04;101289.16;;;20.01;69.23
21706;BME280;11014;53.076;18.208;2022-10-16T07:16:33;101286.41;;;20.06;69.15
21706;BME280;11014;53.076;18.208;2022-10-16T07:19:02;101288.56;;;20.15;69.11
21706;BME280;11014;53.076;18.208;2022-10-16T07:21:33;101297.28;;;20.22;68.89
21706;BME280;11014;53.076;18.208;2022-10-16T07:24:06;101301.63;;;20.28;68.89
21706;BME280;11014;53.076;18.208;2022-10-16T07:26:36;101303.81;;;20.31;68.64
21706;BME280;11014;53.076;18.208;2022-10-16T07:29:12;101307.63;;;20.35;68.71
21706;BME280;11014;53.076;18.208;2022-10-16T07:31:43;101297.78;;;20.39;68.78
21706;BME280;11014;53.076;18.208;2022-10-16T07:34:13;101305.34;;;20.52;68.88
21706;BME280;11014;53.076;18.208;2022-10-16T07:36:42;101311.06;;;20.60;68.52
21706;BME280;11014;53.076;18.208;2022-10-16T07:39:11;101313.50;;;20.67;68.40
21706;BME280;11014;53.076;18.208;2022-10-16T07:41:39;101321.09;;;20.75;68.34
21706;BME280;11014;53.076;18.208;2022-10-16T07:44:08;101331.13;;;20.90;68.12
21706;BME280;11014;53.076;18.208;2022-10-16T07:46:37;101325.59;;;21.00;67.88
21706;BME280;11014;53.076;18.208;2022-10-16T07:49:05;101324.72;;;21.09;67.25
21706;BME280;11014;53.076;18.208;2022-10-16T07:51:34;101324.94;;;21.18;67.18
21706;BME280;11014;53.076;18.208;2022-10-16T07:54:03;101324.63;;;21.24;67.05
21706;BME280;11014;53.076;18.208;2022-10-16T07:56:31;101344.25;;;21.32;66.67
21706;BME280;11014;53.076;18.208;2022-10-16T07:59:01;101339.88;;;21.36;66.68
21706;BME280;11014;53.076;18.208;2022-10-16T08:01:29;101348.31;;;21.39;66.64
21706;BME280;11014;53.076;18.208;2022-10-16T08:03:58;101344.69;;;21.49;66.34
21706;BME280;11014;53.076;18.208;2022-10-16T08:06:27;101344.13;;;21.52;66.25
21706;BME280;11014;53.076;18.208;2022-10-16T08:08:56;101345.75;;;21.53;66.29
21706;BME280;11014;53.076;18.208;2022-10-16T08:11:24;101348.16;;;21.59;66.10
21706;BME280;11014;53.076;18.208;2022-10-16T08:14:18;101341.78;;;21.69;66.05
21706;BME280;11014;53.076;18.208;2022-10-16T08:16:47;101347.25;;;21.69;65.83
21706;BME280;11014;53.076;18.208;2022-10-16T08:19:15;101346.94;;;21.70;65.62
21706;BME280;11014;53.076;18.208;2022-10-16T08:21:47;101354.28;;;21.75;65.58
21706;BME280;11014;53.076;18.208;2022-10-16T08:24:18;101355.63;;;21.82;65.14
21706;BME280;11014;53.076;18.208;2022-10-16T08:26:47;101361.84;;;21.93;65.12
21706;BME280;11014;53.076;18.208;2022-10-16T08:29:15;101360.63;;;22.04;64.70
21706;BME280;11014;53.076;18.208;2022-10-16T08:31:44;101356.13;;;22.13;64.58
21706;BME280;11014;53.076;18.208;2022-10-16T08:34:12;101360.97;;;22.21;64.66
21706;BME280;11014;53.076;18.208;2022-10-16T08:36:41;101362.56;;;22.27;64.21
21706;BME280;11014;53.076;18.208;2022-10-16T08:39:09;101361.72;;;22.32;63.92
21706;BME280;11014;53.076;18.208;2022-10-16T08:42:07;101345.69;;;22.44;63.54
21706;BME280;11014;53.076;18.208;2022-10-16T08:48:32;101354.78;;;22.39;62.62
21706;BME280;11014;53.076;18.208;2022-10-16T08:52:29;101351.56;;;22.32;63.10
21706;BME280;11014;53.076;18.208;2022-10-16T08:59:54;101365.84;;;22.77;62.48
21706;BME280;11014;53.076;18.208;2022-10-16T09:30:45;101378.13;;;22.79;61.72
21706;BME280;11014;53.076;18.208;2022-10-16T09:33:36;101382.75;;;22.84;61.55
21706;BME280;11014;53.076;18.208;2022-10-16T09:36:22;101382.38;;;22.90;61.45
21706;BME280;11014;53.076;18.208;2022-10-16T09:39:06;101383.13;;;22.96;61.58
21706;BME280;11014;53.076;18.208;2022-10-16T09:41:37;101379.44;;;23.06;61.36
21706;BME280;11014;53.076;18.208;2022-10-16T09:44:31;101381.94;;;23.21;61.32
21706;BME280;11014;53.076;18.208;2022-10-16T09:47:05;101382.69;;;23.26;60.87
21706;BME280;11014;53.076;18.208;2022-10-16T09:49:35;101373.28;;;23.32;60.81
21706;BME280;11014;53.076;18.208;2022-10-16T09:52:13;101381.19;;;23.34;60.11
21706;BME280;11014;53.076;18.208;2022-10-16T09:54:59;101396.25;;;23.36;60.21
21706;BME280;11014;53.076;18.208;2022-10-16T09:57:28;101396.03;;;23.33;59.75
21706;BME280;11014;53.076;18.208;2022-10-16T09:59:59;101387.66;;;23.24;59.54
21706;BME280;11014;53.076;18.208;2022-10-16T10:57:15;101408.31;;;24.05;57.42
21706;BME280;11014;53.076;18.208;2022-10-16T11:00:02;101411.03;;;24.24;57.08
21706;BME280;11014;53.076;18.208;2022-10-16T11:05:43;101419.84;;;24.53;56.02
21706;BME280;11014;53.076;18.208;2022-10-16T11:08:19;101418.41;;;24.55;55.99
21706;BME280;11014;53.076;18.208;2022-10-16T11:11:27;101411.78;;;24.56;55.54
21706;BME280;11014;53.076;18.208;2022-10-16T11:14:05;101413.72;;;24.42;56.00
21706;BME280;11014;53.076;18.208;2022-10-16T11:20:37;101422.13;;;24.18;56.91
21706;BME280;11014;53.076;18.208;2022-10-16T11:23:28;101432.72;;;24.25;56.69
21706;BME280;11014;53.076;18.208;2022-10-16T11:26:11;101430.78;;;24.26;56.60
21706;BME280;11014;53.076;18.208;2022-10-16T11:29:18;101433.03;;;24.37;56.12
21706;BME280;11014;53.076;18.208;2022-10-16T11:32:48;101421.75;;;24.39;55.69
21706;BME280;11014;53.076;18.208;2022-10-16T11:35:06;101420.44;;;24.36;55.67
21706;BME280;11014;53.076;18.208;2022-10-16T11:37:49;101423.06;;;24.28;55.95
21706;BME280;11014;53.076;18.208;2022-10-16T11:40:34;101417.78;;;24.31;56.28
21706;BME280;11014;53.076;18.208;2022-10-16T11:43:38;101421.63;;;24.30;56.24
21706;BME280;11014;53.076;18.208;2022-10-16T11:46:20;101428.31;;;24.24;55.68
21706;BME280;11014;53.076;18.208;2022-10-16T11:49:34;101425.47;;;24.15;55.99
21706;BME280;11014;53.076;18.208;2022-10-16T11:52:23;101413.69;;;24.15;56.40
21706;BME280;11014;53.076;18.208;2022-10-16T11:57:47;101431.41;;;24.36;55.85
21706;BME280;11014;53.076;18.208;2022-10-16T12:00:31;101435.09;;;24.32;55.74
21706;BME280;11014;53.076;18.208;2022-10-16T12:03:18;101425.72;;;24.46;55.88
21706;BME280;11014;53.076;18.208;2022-10-16T12:08:52;101412.31;;;24.58;55.50
21706;BME280;11014;53.076;18.208;2022-10-16T12:14:34;101415.56;;;24.60;55.44
21706;BME280;11014;53.076;18.208;2022-10-16T12:22:53;101425.91;;;24.36;55.90
21706;BME280;11014;53.076;18.208;2022-10-16T12:25:27;101426.72;;;24.23;55.97
21706;BME280;11014;53.076;18.208;2022-10-16T12:28:17;101427.00;;;24.22;56.54
21706;BME280;11014;53.076;18.208;2022-10-16T12:30:59;101429.38;;;24.28;56.56
21706;BME280;11014;53.076;18.208;2022-10-16T12:33:36;101441.06;;;24.34;56.70
21706;BME280;11014;53.076;18.208;2022-10-16T12:36:15;101447.06;;;24.36;56.38
21706;BME280;11014;53.076;18.208;2022-10-16T12:39:46;101439.22;;;24.29;56.28
21706;BME280;11014;53.076;18.208;2022-10-16T12:43:35;101435.47;;;24.25;56.20
21706;BME280;11014;53.076;18.208;2022-10-16T12:47:03;101449.28;;;24.20;56.30
21706;BME280;11014;53.076;18.208;2022-10-16T12:49:37;101446.09;;;24.13;56.49
21706;BME280;11014;53.076;18.208;2022-10-16T12:52:28;101457.91;;;24.13;56.68
21706;BME280;11014;53.076;18.208;2022-10-16T12:54:57;101453.00;;;24.10;56.79
21706;BME280;11014;53.076;18.208;2022-10-16T12:57:55;101441.19;;;24.10;56.96
21706;BME280;11014;53.076;18.208;2022-10-16T13:01:00;101444.38;;;24.17;56.99
21706;BME280;11014;53.076;18.208;2022-10-16T13:04:14;101433.31;;;24.22;56.68
21706;BME280;11014;53.076;18.208;2022-10-16T13:20:05;101457.38;;;24.11;56.85
21706;BME280;11014;53.076;18.208;2022-10-16T13:29:32;101460.06;;;24.30;56.54
21706;BME280;11014;53.076;18.208;2022-10-16T13:32:15;101461.03;;;24.39;56.36
21706;BME280;11014;53.076;18.208;2022-10-16T13:35:01;101469.16;;;24.44;56.02
21706;BME280;11014;53.076;18.208;2022-10-16T13:37:50;101471.50;;;24.51;55.82
21706;BME280;11014;53.076;18.208;2022-10-16T13:40:28;101468.34;;;24.57;55.86
21706;BME280;11014;53.076;18.208;2022-10-16T13:47:00;101471.16;;;24.85;55.00
21706;BME280;11014;53.076;18.208;2022-10-16T13:49:32;101468.91;;;24.87;55.26
21706;BME280;11014;53.076;18.208;2022-10-16T13:52:01;101478.78;;;24.88;55.10
21706;BME280;11014;53.076;18.208;2022-10-16T13:54:33;101473.28;;;24.88;54.70
21706;BME280;11014;53.076;18.208;2022-10-16T13:57:05;101471.38;;;24.88;55.15
21706;BME280;11014;53.076;18.208;2022-10-16T13:59:54;101477.06;;;24.92;54.96
21706;BME280;11014;53.076;18.208;2022-10-16T14:02:38;101488.06;;;24.92;54.93
21706;BME280;11014;53.076;18.208;2022-10-16T14:05:09;101482.25;;;24.93;54.73
21706;BME280;11014;53.076;18.208;2022-10-16T14:07:42;101482.34;;;25.02;54.66
21706;BME280;11014;53.076;18.208;2022-10-16T14:10:22;101476.66;;;25.12;54.46
21706;BME280;11014;53.076;18.208;2022-10-16T14:12:56;101482.84;;;25.17;54.22
21706;BME280;11014;53.076;18.208;2022-10-16T14:15:32;101484.78;;;25.17;54.51
21706;BME280;11014;53.076;18.208;2022-10-16T14:18:05;101492.53;;;25.15;54.44
21706;BME280;11014;53.076;18.208;2022-10-16T14:20:41;101490.72;;;25.10;54.38
21706;BME280;11014;53.076;18.208;2022-10-16T14:23:29;101491.81;;;25.09;54.53
21706;BME280;11014;53.076;18.208;2022-10-16T14:28:40;101479.91;;;25.00;54.80
21706;BME280;11014;53.076;18.208;2022-10-16T14:31:29;101494.97;;;25.03;55.13
21706;BME280;11014;53.076;18.208;2022-10-16T14:34:03;101501.28;;;25.03;54.94
21706;BME280;11014;53.076;18.208;2022-10-16T14:36:33;101503.75;;;25.05;55.33
21706;BME280;11014;53.076;18.208;2022-10-16T14:39:05;101502.09;;;25.04;55.16
21706;BME280;11014;53.076;18.208;2022-10-16T14:41:48;101503.13;;;25.08;55.20
21706;BME280;11014;53.076;18.208;2022-10-16T14:44:18;101497.81;;;25.11;54.85
21706;BME280;11014;53.076;18.208;2022-10-16T14:46:48;101498.63;;;25.12;54.92
21706;BME280;11014;53.076;18.208;2022-10-16T14:49:22;101501.50;;;25.07;55.22
21706;BME280;11014;53.076;18.208;2022-10-16T14:51:57;101506.06;;;24.98;55.27
21706;BME280;11014;53.076;18.208;2022-10-16T14:54:26;101513.09;;;24.90;55.54
21706;BME280;11014;53.076;18.208;2022-10-16T14:56:57;101509.41;;;24.81;55.67
21706;BME280;11014;53.076;18.208;2022-10-16T14:59:37;101512.78;;;24.78;56.00
21706;BME280;11014;53.076;18.208;2022-10-16T15:02:32;101529.31;;;24.73;56.09
21706;BME280;11014;53.076;18.208;2022-10-16T15:05:16;101521.00;;;24.64;56.32
21706;BME280;11014;53.076;18.208;2022-10-16T15:07:46;101530.44;;;24.58;56.43
21706;BME280;11014;53.076;18.208;2022-10-16T15:10:16;101533.28;;;24.53;56.55
21706;BME280;11014;53.076;18.208;2022-10-16T15:13:25;101534.75;;;24.46;56.81
21706;BME280;11014;53.076;18.208;2022-10-16T15:16:00;101540.44;;;24.36;56.94
21706;BME280;11014;53.076;18.208;2022-10-16T15:18:46;101541.94;;;24.28;57.08
21706;BME280;11014;53.076;18.208;2022-10-16T15:21:27;101537.94;;;24.21;57.32
21706;BME280;11014;53.076;18.208;2022-10-16T15:23:56;101536.69;;;24.13;57.39
21706;BME280;11014;53.076;18.208;2022-10-16T15:26:26;101537.88;;;24.07;57.84
21706;BME280;11014;53.076;18.208;2022-10-16T15:28:55;101530.28;;;23.99;57.74
21706;BME280;11014;53.076;18.208;2022-10-16T15:31:24;101530.09;;;23.95;58.01
21706;BME280;11014;53.076;18.208;2022-10-16T15:33:53;101535.94;;;23.89;58.06
21706;BME280;11014;53.076;18.208;2022-10-16T15:36:28;101537.72;;;23.80;58.36
21706;BME280;11014;53.076;18.208;2022-10-16T15:38:57;101538.91;;;23.74;58.69
21706;BME280;11014;53.076;18.208;2022-10-16T15:41:26;101533.69;;;23.53;59.15
21706;BME280;11014;53.076;18.208;2022-10-16T15:43:54;101551.44;;;23.37;59.63
21706;BME280;11014;53.076;18.208;2022-10-16T15:46:24;101546.06;;;23.27;60.02